Terminal Aerodrome Forecast
Issued by NWS Chicago, IL

Home | Current Version | Previous Version | Graphics & Text | Print | Product List | Glossary On
Versions: 1 2 3 4 5 6 7 8 9 10 11 12 13 14 15 16 17 18 19 20 21 22 23 24 25 26 27 28 29 30 31 32 33 34 35 36 37
000
FTUS43 KLOT 172100 AAB
TAFRFD
TAF AMD
KRFD 172152Z 1722/1818 08007KT P6SM SCT018 SCT025
      TEMPO 1800/1803 BKN018
     FM180300 08005KT P6SM SCT015
     FM180600 08003KT 3SM BR BKN015
      TEMPO 1809/1813 1/2SM FG VV002
     FM181500 16005KT P6SM SCT015 BKN022=

USA.gov is the U.S. government's official web portal to all federal, state and local government web resources and services.